sensor_id;sensor_type;location;lat;lon;timestamp;temperature;humidity
6696;DHT22;3385;48.928;10.330;2023-03-24T00:02:22;12.30;99.90
6696;DHT22;3385;48.928;10.330;2023-03-24T00:04:49;12.50;99.90
6696;DHT22;3385;48.928;10.330;2023-03-24T00:07:19;12.30;99.90
6696;DHT22;3385;48.928;10.330;2023-03-24T00:09:48;12.60;99.90
6696;DHT22;3385;48.928;10.330;2023-03-24T00:12:13;12.40;99.90
6696;DHT22;3385;48.928;10.330;2023-03-24T00:14:43;12.60;99.90
6696;DHT22;3385;48.928;10.330;2023-03-24T00:17:12;12.50;99.90
6696;DHT22;3385;48.928;10.330;2023-03-24T00:19:39;12.60;99.90
6696;DHT22;3385;48.928;10.330;2023-03-24T00:22:06;12.40;99.90
6696;DHT22;3385;48.928;10.330;2023-03-24T00:24:33;12.50;99.90
6696;DHT22;3385;48.928;10.330;2023-03-24T00:26:59;12.50;99.90
6696;DHT22;3385;48.928;10.330;2023-03-24T00:29:27;12.50;99.90
6696;DHT22;3385;48.928;10.330;2023-03-24T00:31:54;12.50;99.90
6696;DHT22;3385;48.928;10.330;2023-03-24T00:34:21;12.50;99.90
6696;DHT22;3385;48.928;10.330;2023-03-24T00:36:50;12.50;99.90
6696;DHT22;3385;48.928;10.330;2023-03-24T00:39:19;12.80;99.90
6696;DHT22;3385;48.928;10.330;2023-03-24T00:41:46;12.50;99.90
6696;DHT22;3385;48.928;10.330;2023-03-24T00:44:14;12.50;99.90
6696;DHT22;3385;48.928;10.330;2023-03-24T00:46:47;12.50;99.90
6696;DHT22;3385;48.928;10.330;2023-03-24T00:49:22;12.50;99.90
6696;DHT22;3385;48.928;10.330;2023-03-24T00:52:11;12.80;99.90
6696;DHT22;3385;48.928;10.330;2023-03-24T00:54:38;12.50;99.90
6696;DHT22;3385;48.928;10.330;2023-03-24T00:57:07;12.50;99.90
6696;DHT22;3385;48.928;10.330;2023-03-24T00:59:34;12.30;99.90
6696;DHT22;3385;48.928;10.330;2023-03-24T01:02:03;12.30;99.90
6696;DHT22;3385;48.928;10.330;2023-03-24T01:04:29;12.40;99.90
6696;DHT22;3385;48.928;10.330;2023-03-24T01:06:55;12.20;99.90
6696;DHT22;3385;48.928;10.330;2023-03-24T01:09:23;15.30;99.90
6696;DHT22;3385;48.928;10.330;2023-03-24T01:11:49;11.80;99.90
6696;DHT22;3385;48.928;10.330;2023-03-24T01:14:15;11.70;99.90
6696;DHT22;3385;48.928;10.330;2023-03-24T01:16:41;11.60;99.90
6696;DHT22;3385;48.928;10.330;2023-03-24T01:19:08;11.70;99.90
6696;DHT22;3385;48.928;10.330;2023-03-24T01:21:35;11.40;99.90
6696;DHT22;3385;48.928;10.330;2023-03-24T01:24:02;11.40;99.90
6696;DHT22;3385;48.928;10.330;2023-03-24T01:26:29;11.40;99.90
6696;DHT22;3385;48.928;10.330;2023-03-24T01:28:55;11.30;99.90
6696;DHT22;3385;48.928;10.330;2023-03-24T01:31:21;11.30;99.90
6696;DHT22;3385;48.928;10.330;2023-03-24T01:33:47;11.30;99.90
6696;DHT22;3385;48.928;10.330;2023-03-24T01:36:13;11.30;99.90
6696;DHT22;3385;48.928;10.330;2023-03-24T01:38:39;11.30;99.90
6696;DHT22;3385;48.928;10.330;2023-03-24T01:41:05;11.30;99.90
6696;DHT22;3385;48.928;10.330;2023-03-24T01:43:33;11.30;99.90
6696;DHT22;3385;48.928;10.330;2023-03-24T01:51:36;11.40;99.90
6696;DHT22;3385;48.928;10.330;2023-03-24T01:55:26;11.40;99.90
6696;DHT22;3385;48.928;10.330;2023-03-24T01:57:32;11.60;99.90
6696;DHT22;3385;48.928;10.330;2023-03-24T02:00:03;11.40;99.90
6696;DHT22;3385;48.928;10.330;2023-03-24T02:02:30;11.20;99.90
6696;DHT22;3385;48.928;10.330;2023-03-24T02:05:03;11.20;99.90
6696;DHT22;3385;48.928;10.330;2023-03-24T02:10:18;11.10;99.90
6696;DHT22;3385;48.928;10.330;2023-03-24T02:12:44;11.10;99.90
6696;DHT22;3385;48.928;10.330;2023-03-24T02:15:12;10.90;99.90
6696;DHT22;3385;48.928;10.330;2023-03-24T02:23:14;11.00;99.90
6696;DHT22;3385;48.928;10.330;2023-03-24T02:37:08;10.90;99.90
6696;DHT22;3385;48.928;10.330;2023-03-24T02:42:43;11.40;99.90
6696;DHT22;3385;48.928;10.330;2023-03-24T02:45:33;11.30;99.90
6696;DHT22;3385;48.928;10.330;2023-03-24T02:48:25;11.30;99.90
6696;DHT22;3385;48.928;10.330;2023-03-24T02:59:09;11.80;99.90
6696;DHT22;3385;48.928;10.330;2023-03-24T03:01:40;11.70;99.90
6696;DHT22;3385;48.928;10.330;2023-03-24T03:04:11;11.90;99.90
6696;DHT22;3385;48.928;10.330;2023-03-24T03:06:46;12.10;99.90
6696;DHT22;3385;48.928;10.330;2023-03-24T03:09:16;12.00;99.90
6696;DHT22;3385;48.928;10.330;2023-03-24T03:11:47;12.30;99.90
6696;DHT22;3385;48.928;10.330;2023-03-24T03:14:39;12.00;99.90
6696;DHT22;3385;48.928;10.330;2023-03-24T03:17:17;12.20;99.90
6696;DHT22;3385;48.928;10.330;2023-03-24T03:19:50;12.20;99.90
6696;DHT22;3385;48.928;10.330;2023-03-24T03:22:32;12.30;99.90
6696;DHT22;3385;48.928;10.330;2023-03-24T03:24:59;12.30;99.90
6696;DHT22;3385;48.928;10.330;2023-03-24T03:27:33;12.30;99.90
6696;DHT22;3385;48.928;10.330;2023-03-24T03:30:12;12.10;99.90
6696;DHT22;3385;48.928;10.330;2023-03-24T03:32:53;12.20;99.90
6696;DHT22;3385;48.928;10.330;2023-03-24T03:35:40;12.30;99.90
6696;DHT22;3385;48.928;10.330;2023-03-24T03:38:15;12.30;99.90
6696;DHT22;3385;48.928;10.330;2023-03-24T03:40:54;12.40;99.90
6696;DHT22;3385;48.928;10.330;2023-03-24T03:43:21;12.40;99.90
6696;DHT22;3385;48.928;10.330;2023-03-24T03:45:47;12.30;99.90
6696;DHT22;3385;48.928;10.330;2023-03-24T03:48:15;12.30;99.90
6696;DHT22;3385;48.928;10.330;2023-03-24T03:50:41;12.20;99.90
6696;DHT22;3385;48.928;10.330;2023-03-24T03:53:07;12.50;99.90
6696;DHT22;3385;48.928;10.330;2023-03-24T03:55:34;12.50;99.90
6696;DHT22;3385;48.928;10.330;2023-03-24T03:58:02;12.30;99.90
6696;DHT22;3385;48.928;10.330;2023-03-24T04:00:29;12.40;99.90
6696;DHT22;3385;48.928;10.330;2023-03-24T04:06:02;12.30;99.90
6696;DHT22;3385;48.928;10.330;2023-03-24T04:19:12;12.60;99.90
6696;DHT22;3385;48.928;10.330;2023-03-24T04:35:35;12.20;99.90
6696;DHT22;3385;48.928;10.330;2023-03-24T04:38:25;12.20;99.90
6696;DHT22;3385;48.928;10.330;2023-03-24T04:40:54;12.20;99.90
6696;DHT22;3385;48.928;10.330;2023-03-24T04:43:24;12.00;99.90
6696;DHT22;3385;48.928;10.330;2023-03-24T04:45:53;12.10;99.90
6696;DHT22;3385;48.928;10.330;2023-03-24T04:48:23;11.70;99.90
6696;DHT22;3385;48.928;10.330;2023-03-24T04:50:57;11.80;99.90
6696;DHT22;3385;48.928;10.330;2023-03-24T04:53:23;11.60;99.90
6696;DHT22;3385;48.928;10.330;2023-03-24T04:58:18;11.60;99.90
6696;DHT22;3385;48.928;10.330;2023-03-24T05:00:45;12.00;99.90
6696;DHT22;3385;48.928;10.330;2023-03-24T05:03:12;11.50;99.90
6696;DHT22;3385;48.928;10.330;2023-03-24T05:05:46;11.60;99.90
6696;DHT22;3385;48.928;10.330;2023-03-24T05:08:13;11.60;99.90
6696;DHT22;3385;48.928;10.330;2023-03-24T05:10:39;11.80;99.90
6696;DHT22;3385;48.928;10.330;2023-03-24T05:13:06;11.50;99.90
6696;DHT22;3385;48.928;10.330;2023-03-24T05:15:32;11.40;99.90
6696;DHT22;3385;48.928;10.330;2023-03-24T05:17:58;11.40;99.90
6696;DHT22;3385;48.928;10.330;2023-03-24T05:20:25;11.40;99.90
6696;DHT22;3385;48.928;10.330;2023-03-24T05:22:51;11.40;99.90
6696;DHT22;3385;48.928;10.330;2023-03-24T05:25:18;11.50;99.90
6696;DHT22;3385;48.928;10.330;2023-03-24T05:27:44;11.60;99.90
6696;DHT22;3385;48.928;10.330;2023-03-24T05:30:11;11.30;99.90
6696;DHT22;3385;48.928;10.330;2023-03-24T05:32:37;11.10;99.90
6696;DHT22;3385;48.928;10.330;2023-03-24T05:35:03;11.30;99.90
6696;DHT22;3385;48.928;10.330;2023-03-24T05:37:29;11.30;99.90
6696;DHT22;3385;48.928;10.330;2023-03-24T05:39:54;11.40;99.90
6696;DHT22;3385;48.928;10.330;2023-03-24T05:42:21;11.30;99.90
6696;DHT22;3385;48.928;10.330;2023-03-24T05:44:47;11.30;99.90
6696;DHT22;3385;48.928;10.330;2023-03-24T05:47:13;10.80;99.90
6696;DHT22;3385;48.928;10.330;2023-03-24T05:49:47;11.40;99.90
6696;DHT22;3385;48.928;10.330;2023-03-24T05:52:13;11.50;99.90
6696;DHT22;3385;48.928;10.330;2023-03-24T05:54:41;11.60;99.90
6696;DHT22;3385;48.928;10.330;2023-03-24T05:57:11;11.70;99.90
6696;DHT22;3385;48.928;10.330;2023-03-24T05:59:38;11.70;99.90
6696;DHT22;3385;48.928;10.330;2023-03-24T06:02:04;12.00;99.90
6696;DHT22;3385;48.928;10.330;2023-03-24T06:04:30;12.10;99.90
6696;DHT22;3385;48.928;10.330;2023-03-24T06:06:56;12.40;99.90
6696;DHT22;3385;48.928;10.330;2023-03-24T06:09:30;12.50;99.90
6696;DHT22;3385;48.928;10.330;2023-03-24T06:12:03;12.90;99.90
6696;DHT22;3385;48.928;10.330;2023-03-24T06:14:29;13.00;99.90
6696;DHT22;3385;48.928;10.330;2023-03-24T06:16:55;13.10;99.90
6696;DHT22;3385;48.928;10.330;2023-03-24T06:19:24;13.10;99.90
6696;DHT22;3385;48.928;10.330;2023-03-24T06:21:50;13.30;99.90
6696;DHT22;3385;48.928;10.330;2023-03-24T06:24:19;13.30;99.90
6696;DHT22;3385;48.928;10.330;2023-03-24T06:26:46;13.30;99.90
6696;DHT22;3385;48.928;10.330;2023-03-24T06:29:15;13.40;99.90
6696;DHT22;3385;48.928;10.330;2023-03-24T06:31:43;13.40;99.90
6696;DHT22;3385;48.928;10.330;2023-03-24T06:34:08;13.20;99.90
6696;DHT22;3385;48.928;10.330;2023-03-24T06:36:34;13.30;99.90
6696;DHT22;3385;48.928;10.330;2023-03-24T06:39:00;12.70;99.90
6696;DHT22;3385;48.928;10.330;2023-03-24T06:41:27;12.80;99.90
6696;DHT22;3385;48.928;10.330;2023-03-24T06:43:52;12.70;99.90
6696;DHT22;3385;48.928;10.330;2023-03-24T06:46:18;12.50;99.90
6696;DHT22;3385;48.928;10.330;2023-03-24T06:48:44;12.40;99.90
6696;DHT22;3385;48.928;10.330;2023-03-24T06:51:11;12.50;99.90
6696;DHT22;3385;48.928;10.330;2023-03-24T06:53:36;12.20;99.90
6696;DHT22;3385;48.928;10.330;2023-03-24T06:56:06;11.80;99.90
6696;DHT22;3385;48.928;10.330;2023-03-24T06:58:32;11.70;99.90
6696;DHT22;3385;48.928;10.330;2023-03-24T07:01:01;11.70;99.90
6696;DHT22;3385;48.928;10.330;2023-03-24T07:03:27;11.70;99.90
6696;DHT22;3385;48.928;10.330;2023-03-24T07:05:52;11.40;99.90
6696;DHT22;3385;48.928;10.330;2023-03-24T07:08:18;11.40;99.90
6696;DHT22;3385;48.928;10.330;2023-03-24T07:10:44;11.50;99.90
6696;DHT22;3385;48.928;10.330;2023-03-24T07:13:10;11.50;99.90
6696;DHT22;3385;48.928;10.330;2023-03-24T07:15:36;11.80;99.90
6696;DHT22;3385;48.928;10.330;2023-03-24T07:18:02;11.50;99.90
6696;DHT22;3385;48.928;10.330;2023-03-24T07:20:27;11.60;99.90
6696;DHT22;3385;48.928;10.330;2023-03-24T07:22:56;11.70;99.90
6696;DHT22;3385;48.928;10.330;2023-03-24T07:25:23;11.90;99.90
6696;DHT22;3385;48.928;10.330;2023-03-24T07:27:52;12.20;99.90
6696;DHT22;3385;48.928;10.330;2023-03-24T07:30:20;12.10;99.90
6696;DHT22;3385;48.928;10.330;2023-03-24T07:32:46;12.20;99.90
6696;DHT22;3385;48.928;10.330;2023-03-24T07:35:14;12.40;99.90
6696;DHT22;3385;48.928;10.330;2023-03-24T07:37:41;12.40;99.90
6696;DHT22;3385;48.928;10.330;2023-03-24T07:40:08;12.50;99.90
6696;DHT22;3385;48.928;10.330;2023-03-24T07:42:41;12.40;99.90
6696;DHT22;3385;48.928;10.330;2023-03-24T07:45:08;12.40;99.90
6696;DHT22;3385;48.928;10.330;2023-03-24T07:47:35;12.50;99.90
6696;DHT22;3385;48.928;10.330;2023-03-24T07:50:02;12.50;99.90
6696;DHT22;3385;48.928;10.330;2023-03-24T07:52:29;12.50;99.90
6696;DHT22;3385;48.928;10.330;2023-03-24T07:54:55;12.70;99.90
6696;DHT22;3385;48.928;10.330;2023-03-24T07:57:21;12.30;99.90
6696;DHT22;3385;48.928;10.330;2023-03-24T07:59:47;12.50;99.90
6696;DHT22;3385;48.928;10.330;2023-03-24T08:02:22;12.80;99.90
6696;DHT22;3385;48.928;10.330;2023-03-24T08:04:51;12.60;99.90
6696;DHT22;3385;48.928;10.330;2023-03-24T08:07:18;12.60;99.90
6696;DHT22;3385;48.928;10.330;2023-03-24T08:09:44;12.60;99.90
6696;DHT22;3385;48.928;10.330;2023-03-24T08:12:10;12.50;99.90
6696;DHT22;3385;48.928;10.330;2023-03-24T08:14:35;12.60;99.90
6696;DHT22;3385;48.928;10.330;2023-03-24T08:17:01;12.40;99.90
6696;DHT22;3385;48.928;10.330;2023-03-24T08:19:27;12.30;99.90
6696;DHT22;3385;48.928;10.330;2023-03-24T08:21:52;12.10;99.90
6696;DHT22;3385;48.928;10.330;2023-03-24T08:24:18;12.10;99.90
6696;DHT22;3385;48.928;10.330;2023-03-24T08:26:44;12.20;99.90
6696;DHT22;3385;48.928;10.330;2023-03-24T08:29:11;11.90;99.90
6696;DHT22;3385;48.928;10.330;2023-03-24T08:31:37;11.80;99.90
6696;DHT22;3385;48.928;10.330;2023-03-24T08:34:04;11.80;99.90
6696;DHT22;3385;48.928;10.330;2023-03-24T08:36:31;11.40;99.90
6696;DHT22;3385;48.928;10.330;2023-03-24T08:38:57;11.40;99.90
6696;DHT22;3385;48.928;10.330;2023-03-24T08:41:25;11.30;99.90
6696;DHT22;3385;48.928;10.330;2023-03-24T08:43:55;11.30;99.90
6696;DHT22;3385;48.928;10.330;2023-03-24T08:46:21;11.20;99.90
6696;DHT22;3385;48.928;10.330;2023-03-24T08:48:47;11.20;99.90
6696;DHT22;3385;48.928;10.330;2023-03-24T08:51:15;11.00;99.90
6696;DHT22;3385;48.928;10.330;2023-03-24T08:53:41;11.00;99.90
6696;DHT22;3385;48.928;10.330;2023-03-24T08:56:08;11.00;99.90
6696;DHT22;3385;48.928;10.330;2023-03-24T08:58:34;10.90;99.90
6696;DHT22;3385;48.928;10.330;2023-03-24T09:01:01;10.90;99.90
6696;DHT22;3385;48.928;10.330;2023-03-24T09:03:27;11.00;99.90
6696;DHT22;3385;48.928;10.330;2023-03-24T09:05:56;11.00;99.90
6696;DHT22;3385;48.928;10.330;2023-03-24T09:08:23;11.10;99.90
6696;DHT22;3385;48.928;10.330;2023-03-24T09:10:50;11.10;99.90
6696;DHT22;3385;48.928;10.330;2023-03-24T09:13:17;11.10;99.90
6696;DHT22;3385;48.928;10.330;2023-03-24T09:15:56;11.10;99.90
6696;DHT22;3385;48.928;10.330;2023-03-24T09:18:22;11.10;99.90
6696;DHT22;3385;48.928;10.330;2023-03-24T09:20:49;11.30;99.90
6696;DHT22;3385;48.928;10.330;2023-03-24T09:23:16;11.30;99.90
6696;DHT22;3385;48.928;10.330;2023-03-24T09:25:41;11.40;99.90
6696;DHT22;3385;48.928;10.330;2023-03-24T09:28:07;11.70;99.90
6696;DHT22;3385;48.928;10.330;2023-03-24T09:30:33;11.70;99.90
6696;DHT22;3385;48.928;10.330;2023-03-24T09:32:59;11.80;99.90
6696;DHT22;3385;48.928;10.330;2023-03-24T09:35:26;12.00;99.90
6696;DHT22;3385;48.928;10.330;2023-03-24T09:37:53;12.00;99.90
6696;DHT22;3385;48.928;10.330;2023-03-24T09:40:25;12.20;99.90
6696;DHT22;3385;48.928;10.330;2023-03-24T09:43:36;12.30;99.90
6696;DHT22;3385;48.928;10.330;2023-03-24T09:45:51;12.50;99.90
6696;DHT22;3385;48.928;10.330;2023-03-24T09:51:22;12.80;99.90
6696;DHT22;3385;48.928;10.330;2023-03-24T09:56:35;13.20;99.90
6696;DHT22;3385;48.928;10.330;2023-03-24T09:59:13;13.40;99.90
6696;DHT22;3385;48.928;10.330;2023-03-24T10:01:41;13.40;99.90
6696;DHT22;3385;48.928;10.330;2023-03-24T10:04:16;13.50;99.90
6696;DHT22;3385;48.928;10.330;2023-03-24T10:06:43;13.40;99.90
6696;DHT22;3385;48.928;10.330;2023-03-24T10:09:28;13.40;99.90
6696;DHT22;3385;48.928;10.330;2023-03-24T10:17:35;13.50;99.90
6696;DHT22;3385;48.928;10.330;2023-03-24T10:25:22;13.50;99.90
6696;DHT22;3385;48.928;10.330;2023-03-24T10:28:01;13.50;99.90
6696;DHT22;3385;48.928;10.330;2023-03-24T10:30:33;13.60;99.90
6696;DHT22;3385;48.928;10.330;2023-03-24T10:33:01;13.80;99.90
6696;DHT22;3385;48.928;10.330;2023-03-24T10:35:42;13.90;99.90
6696;DHT22;3385;48.928;10.330;2023-03-24T10:38:19;14.00;99.90
6696;DHT22;3385;48.928;10.330;2023-03-24T10:40:46;14.00;99.90
6696;DHT22;3385;48.928;10.330;2023-03-24T10:43:13;14.30;99.90
6696;DHT22;3385;48.928;10.330;2023-03-24T10:45:43;14.30;99.90
6696;DHT22;3385;48.928;10.330;2023-03-24T10:48:11;14.40;99.90
6696;DHT22;3385;48.928;10.330;2023-03-24T10:50:44;14.50;99.90
6696;DHT22;3385;48.928;10.330;2023-03-24T10:53:19;14.80;99.90
6696;DHT22;3385;48.928;10.330;2023-03-24T10:55:46;15.20;99.90
6696;DHT22;3385;48.928;10.330;2023-03-24T10:58:27;15.20;99.90
6696;DHT22;3385;48.928;10.330;2023-03-24T11:00:53;15.20;99.90
6696;DHT22;3385;48.928;10.330;2023-03-24T11:03:31;15.80;99.90
6696;DHT22;3385;48.928;10.330;2023-03-24T11:06:03;16.10;99.90
6696;DHT22;3385;48.928;10.330;2023-03-24T11:10:58;16.60;99.90
6696;DHT22;3385;48.928;10.330;2023-03-24T11:13:31;16.90;99.90
6696;DHT22;3385;48.928;10.330;2023-03-24T11:16:10;16.60;99.90
6696;DHT22;3385;48.928;10.330;2023-03-24T11:19:38;16.20;99.90
6696;DHT22;3385;48.928;10.330;2023-03-24T11:21:41;16.00;99.90
6696;DHT22;3385;48.928;10.330;2023-03-24T11:24:16;15.70;99.90
6696;DHT22;3385;48.928;10.330;2023-03-24T11:26:58;15.60;99.90
6696;DHT22;3385;48.928;10.330;2023-03-24T11:29:27;15.30;99.90
6696;DHT22;3385;48.928;10.330;2023-03-24T11:32:00;15.40;99.90
6696;DHT22;3385;48.928;10.330;2023-03-24T11:34:32;15.30;99.90
6696;DHT22;3385;48.928;10.330;2023-03-24T11:37:11;15.20;99.90
6696;DHT22;3385;48.928;10.330;2023-03-24T11:39:38;15.10;99.90
6696;DHT22;3385;48.928;10.330;2023-03-24T11:44:51;14.90;99.90
6696;DHT22;3385;48.928;10.330;2023-03-24T11:47:37;14.70;99.90
6696;DHT22;3385;48.928;10.330;2023-03-24T11:55:26;14.90;99.90
6696;DHT22;3385;48.928;10.330;2023-03-24T12:01:13;14.90;99.90
6696;DHT22;3385;48.928;10.330;2023-03-24T12:15:25;15.40;99.90
6696;DHT22;3385;48.928;10.330;2023-03-24T12:23:53;19.00;99.90
6696;DHT22;3385;48.928;10.330;2023-03-24T12:26:27;20.20;99.90
6696;DHT22;3385;48.928;10.330;2023-03-24T12:42:16;18.10;99.90
6696;DHT22;3385;48.928;10.330;2023-03-24T12:47:48;17.70;99.90
6696;DHT22;3385;48.928;10.330;2023-03-24T12:53:25;17.80;99.90
6696;DHT22;3385;48.928;10.330;2023-03-24T12:56:15;17.50;99.90
6696;DHT22;3385;48.928;10.330;2023-03-24T12:58:47;17.30;99.90
6696;DHT22;3385;48.928;10.330;2023-03-24T13:01:42;16.80;99.90
6696;DHT22;3385;48.928;10.330;2023-03-24T13:06:57;16.20;99.90
6696;DHT22;3385;48.928;10.330;2023-03-24T13:09:44;16.10;99.90
6696;DHT22;3385;48.928;10.330;2023-03-24T13:12:17;15.70;99.90
6696;DHT22;3385;48.928;10.330;2023-03-24T13:15:05;15.70;99.90
6696;DHT22;3385;48.928;10.330;2023-03-24T13:20:28;15.80;99.90
6696;DHT22;3385;48.928;10.330;2023-03-24T13:23:14;15.90;99.90
6696;DHT22;3385;48.928;10.330;2023-03-24T13:26:08;16.10;99.90
6696;DHT22;3385;48.928;10.330;2023-03-24T13:28:37;16.20;99.90
6696;DHT22;3385;48.928;10.330;2023-03-24T13:31:06;15.70;99.90
6696;DHT22;3385;48.928;10.330;2023-03-24T13:33:35;15.70;99.90
6696;DHT22;3385;48.928;10.330;2023-03-24T13:38:54;15.30;99.90
6696;DHT22;3385;48.928;10.330;2023-03-24T13:41:22;15.10;99.90
6696;DHT22;3385;48.928;10.330;2023-03-24T13:47:11;14.80;99.90
6696;DHT22;3385;48.928;10.330;2023-03-24T13:49:39;15.10;99.90
6696;DHT22;3385;48.928;10.330;2023-03-24T13:52:31;15.40;99.90
6696;DHT22;3385;48.928;10.330;2023-03-24T13:54:59;15.40;99.90
6696;DHT22;3385;48.928;10.330;2023-03-24T13:57:26;15.50;99.90
6696;DHT22;3385;48.928;10.330;2023-03-24T14:03:30;15.20;99.90
6696;DHT22;3385;48.928;10.330;2023-03-24T14:05:59;15.20;99.90
6696;DHT22;3385;48.928;10.330;2023-03-24T14:19:24;15.10;99.90
6696;DHT22;3385;48.928;10.330;2023-03-24T14:24:27;14.90;99.90
6696;DHT22;3385;48.928;10.330;2023-03-24T14:26:54;14.70;99.90
6696;DHT22;3385;48.928;10.330;2023-03-24T14:29:46;14.60;99.90
6696;DHT22;3385;48.928;10.330;2023-03-24T14:32:16;14.60;99.90
6696;DHT22;3385;48.928;10.330;2023-03-24T14:34:57;14.70;99.90
6696;DHT22;3385;48.928;10.330;2023-03-24T14:37:26;14.50;99.90
6696;DHT22;3385;48.928;10.330;2023-03-24T14:39:54;14.20;99.90
6696;DHT22;3385;48.928;10.330;2023-03-24T14:45:02;13.60;99.90
6696;DHT22;3385;48.928;10.330;2023-03-24T14:47:33;12.90;99.90
6696;DHT22;3385;48.928;10.330;2023-03-24T14:50:16;12.50;99.90
6696;DHT22;3385;48.928;10.330;2023-03-24T14:52:48;12.20;99.90
6696;DHT22;3385;48.928;10.330;2023-03-24T14:55:16;11.60;99.90
6696;DHT22;3385;48.928;10.330;2023-03-24T14:58:14;11.30;99.90
6696;DHT22;3385;48.928;10.330;2023-03-24T15:00:47;11.00;99.90
6696;DHT22;3385;48.928;10.330;2023-03-24T15:08:44;10.10;99.90
6696;DHT22;3385;48.928;10.330;2023-03-24T15:11:10;10.10;99.90
6696;DHT22;3385;48.928;10.330;2023-03-24T15:14:05;9.80;99.90
6696;DHT22;3385;48.928;10.330;2023-03-24T15:16:34;9.90;99.90
6696;DHT22;3385;48.928;10.330;2023-03-24T15:19:23;9.60;99.90
6696;DHT22;3385;48.928;10.330;2023-03-24T15:22:00;10.10;99.90
6696;DHT22;3385;48.928;10.330;2023-03-24T15:24:29;9.90;99.90
6696;DHT22;3385;48.928;10.330;2023-03-24T15:29:35;10.00;99.90
6696;DHT22;3385;48.928;10.330;2023-03-24T15:32:02;9.70;99.90
6696;DHT22;3385;48.928;10.330;2023-03-24T15:37:00;9.70;99.90
6696;DHT22;3385;48.928;10.330;2023-03-24T15:39:32;9.60;99.90
6696;DHT22;3385;48.928;10.330;2023-03-24T15:41:58;9.50;99.90
6696;DHT22;3385;48.928;10.330;2023-03-24T15:44:28;9.50;99.90
6696;DHT22;3385;48.928;10.330;2023-03-24T15:46:57;9.30;99.90
6696;DHT22;3385;48.928;10.330;2023-03-24T15:49:31;9.20;99.90
6696;DHT22;3385;48.928;10.330;2023-03-24T15:54:37;9.20;99.90
6696;DHT22;3385;48.928;10.330;2023-03-24T15:57:16;9.10;99.90
6696;DHT22;3385;48.928;10.330;2023-03-24T15:59:45;9.10;99.90
6696;DHT22;3385;48.928;10.330;2023-03-24T16:02:22;9.10;99.90
6696;DHT22;3385;48.928;10.330;2023-03-24T16:04:50;9.00;99.90
6696;DHT22;3385;48.928;10.330;2023-03-24T16:07:25;9.10;99.90
6696;DHT22;3385;48.928;10.330;2023-03-24T16:09:58;9.00;99.90
6696;DHT22;3385;48.928;10.330;2023-03-24T16:12:33;9.00;99.90
6696;DHT22;3385;48.928;10.330;2023-03-24T16:14:59;9.00;99.90
6696;DHT22;3385;48.928;10.330;2023-03-24T16:17:25;9.00;99.90
6696;DHT22;3385;48.928;10.330;2023-03-24T16:19:51;8.90;99.90
6696;DHT22;3385;48.928;10.330;2023-03-24T16:22:17;8.90;99.90
6696;DHT22;3385;48.928;10.330;2023-03-24T16:24:43;8.90;99.90
6696;DHT22;3385;48.928;10.330;2023-03-24T16:27:11;9.00;99.90
6696;DHT22;3385;48.928;10.330;2023-03-24T16:29:37;8.90;99.90
6696;DHT22;3385;48.928;10.330;2023-03-24T16:32:03;8.80;99.90
6696;DHT22;3385;48.928;10.330;2023-03-24T16:34:29;8.80;99.90
6696;DHT22;3385;48.928;10.330;2023-03-24T16:36:56;8.90;99.90
6696;DHT22;3385;48.928;10.330;2023-03-24T16:39:26;9.00;99.90
6696;DHT22;3385;48.928;10.330;2023-03-24T16:41:53;8.90;99.90
6696;DHT22;3385;48.928;10.330;2023-03-24T16:44:19;8.80;99.90
6696;DHT22;3385;48.928;10.330;2023-03-24T16:46:47;8.90;99.90
6696;DHT22;3385;48.928;10.330;2023-03-24T16:49:16;8.70;99.90
6696;DHT22;3385;48.928;10.330;2023-03-24T16:51:43;8.80;99.90
6696;DHT22;3385;48.928;10.330;2023-03-24T16:54:10;8.80;99.90
6696;DHT22;3385;48.928;10.330;2023-03-24T16:56:36;8.70;99.90
6696;DHT22;3385;48.928;10.330;2023-03-24T16:59:03;8.50;99.90
6696;DHT22;3385;48.928;10.330;2023-03-24T17:01:39;8.60;99.90
6696;DHT22;3385;48.928;10.330;2023-03-24T17:04:17;8.60;99.90
6696;DHT22;3385;48.928;10.330;2023-03-24T17:06:50;8.70;99.90
6696;DHT22;3385;48.928;10.330;2023-03-24T17:09:19;8.60;99.90
6696;DHT22;3385;48.928;10.330;2023-03-24T17:11:51;8.50;99.90
6696;DHT22;3385;48.928;10.330;2023-03-24T17:14:17;8.50;99.90
6696;DHT22;3385;48.928;10.330;2023-03-24T17:16:44;8.50;99.90
6696;DHT22;3385;48.928;10.330;2023-03-24T17:19:18;8.70;99.90
6696;DHT22;3385;48.928;10.330;2023-03-24T17:21:59;8.60;99.90
6696;DHT22;3385;48.928;10.330;2023-03-24T17:24:26;8.70;99.90
6696;DHT22;3385;48.928;10.330;2023-03-24T17:26:53;8.80;99.90
6696;DHT22;3385;48.928;10.330;2023-03-24T17:29:18;8.80;99.90
6696;DHT22;3385;48.928;10.330;2023-03-24T17:31:44;8.80;99.90
6696;DHT22;3385;48.928;10.330;2023-03-24T17:34:11;8.70;99.90
6696;DHT22;3385;48.928;10.330;2023-03-24T17:36:38;8.90;99.90
6696;DHT22;3385;48.928;10.330;2023-03-24T17:39:04;8.90;99.90
6696;DHT22;3385;48.928;10.330;2023-03-24T17:41:30;9.10;99.90
6696;DHT22;3385;48.928;10.330;2023-03-24T17:43:55;8.90;99.90
6696;DHT22;3385;48.928;10.330;2023-03-24T17:46:21;8.90;99.90
6696;DHT22;3385;48.928;10.330;2023-03-24T17:48:48;8.90;99.90
6696;DHT22;3385;48.928;10.330;2023-03-24T17:51:14;8.80;99.90
6696;DHT22;3385;48.928;10.330;2023-03-24T17:53:39;8.80;99.90
6696;DHT22;3385;48.928;10.330;2023-03-24T17:56:05;8.70;99.90
6696;DHT22;3385;48.928;10.330;2023-03-24T17:58:34;8.60;99.90
6696;DHT22;3385;48.928;10.330;2023-03-24T18:01:02;8.60;99.90
6696;DHT22;3385;48.928;10.330;2023-03-24T18:03:31;8.50;99.90
6696;DHT22;3385;48.928;10.330;2023-03-24T18:06:07;8.40;99.90
6696;DHT22;3385;48.928;10.330;2023-03-24T18:08:34;8.40;99.90
6696;DHT22;3385;48.928;10.330;2023-03-24T18:11:09;8.50;99.90
6696;DHT22;3385;48.928;10.330;2023-03-24T18:13:35;8.30;99.90
6696;DHT22;3385;48.928;10.330;2023-03-24T18:16:02;8.20;99.90
6696;DHT22;3385;48.928;10.330;2023-03-24T18:18:28;8.10;99.90
6696;DHT22;3385;48.928;10.330;2023-03-24T18:20:54;8.30;99.90
6696;DHT22;3385;48.928;10.330;2023-03-24T18:23:20;8.50;99.90
6696;DHT22;3385;48.928;10.330;2023-03-24T18:25:46;7.90;99.90
6696;DHT22;3385;48.928;10.330;2023-03-24T18:28:12;8.10;99.90
6696;DHT22;3385;48.928;10.330;2023-03-24T18:30:40;8.20;99.90
6696;DHT22;3385;48.928;10.330;2023-03-24T18:33:06;8.20;99.90
6696;DHT22;3385;48.928;10.330;2023-03-24T18:35:32;8.10;99.90
6696;DHT22;3385;48.928;10.330;2023-03-24T18:37:59;8.00;99.90
6696;DHT22;3385;48.928;10.330;2023-03-24T18:40:25;8.00;99.90
6696;DHT22;3385;48.928;10.330;2023-03-24T18:42:51;8.00;99.90
6696;DHT22;3385;48.928;10.330;2023-03-24T18:45:17;8.00;99.90
6696;DHT22;3385;48.928;10.330;2023-03-24T18:47:45;8.00;99.90
6696;DHT22;3385;48.928;10.330;2023-03-24T18:50:11;8.00;99.90
6696;DHT22;3385;48.928;10.330;2023-03-24T18:52:37;7.80;99.90
6696;DHT22;3385;48.928;10.330;2023-03-24T18:55:03;7.70;99.90
6696;DHT22;3385;48.928;10.330;2023-03-24T18:57:29;7.90;99.90
6696;DHT22;3385;48.928;10.330;2023-03-24T18:59:55;7.90;99.90
6696;DHT22;3385;48.928;10.330;2023-03-24T19:02:21;7.70;99.90
6696;DHT22;3385;48.928;10.330;2023-03-24T19:04:47;7.80;99.90
6696;DHT22;3385;48.928;10.330;2023-03-24T19:07:14;7.70;99.90